createdAt,value
2018-09-29T00:00:46.078Z,101476.88
2018-09-29T00:03:14.207Z,101476.09
2018-09-29T00:05:42.537Z,101478.00
2018-09-29T00:08:10.508Z,101488.95
2018-09-29T00:10:38.575Z,101483.14
2018-09-29T00:13:06.656Z,101478.30
2018-09-29T00:15:34.720Z,101477.98
2018-09-29T00:18:02.817Z,101490.33
2018-09-29T00:20:30.938Z,101493.22
2018-09-29T00:22:59.031Z,101492.87
2018-09-29T00:25:27.347Z,101494.30
2018-09-29T00:27:55.419Z,101489.95
2018-09-29T00:30:23.704Z,101493.30
2018-09-29T00:32:51.779Z,101494.36
2018-09-29T00:35:19.898Z,101493.94
2018-09-29T00:37:47.970Z,101491.76
2018-09-29T00:40:16.053Z,101491.43
2018-09-29T00:42:44.131Z,101488.36
2018-09-29T00:45:12.247Z,101487.14
2018-09-29T00:47:40.319Z,101493.52
2018-09-29T00:50:08.403Z,101481.54
2018-09-29T00:52:36.475Z,101484.84
2018-09-29T00:55:04.559Z,101490.81
2018-09-29T00:57:32.640Z,101483.69
2018-09-29T01:00:00.726Z,101481.97
2018-09-29T01:02:28.909Z,101482.03
2018-09-29T01:04:57.055Z,101485.70
2018-09-29T01:07:25.095Z,101475.36
2018-09-29T01:09:53.207Z,101474.04
2018-09-29T01:12:21.379Z,101470.94
2018-09-29T01:14:49.473Z,101471.06
2018-09-29T01:17:17.632Z,101469.02
2018-09-29T01:19:45.839Z,101472.27
2018-09-29T01:22:13.910Z,101468.84
2018-09-29T01:24:42.050Z,101465.77
2018-09-29T01:27:10.129Z,101473.94
2018-09-29T01:29:38.351Z,101464.99
2018-09-29T01:32:06.434Z,101465.98
2018-09-29T01:34:34.507Z,101466.94
2018-09-29T01:37:02.586Z,101471.88
2018-09-29T01:39:30.658Z,101481.37
2018-09-29T01:41:58.735Z,101473.73
2018-09-29T01:44:26.841Z,101472.92
2018-09-29T01:46:54.903Z,101475.26
2018-09-29T01:49:22.975Z,101468.16
2018-09-29T01:51:51.056Z,101467.75
2018-09-29T01:54:19.126Z,101481.85
2018-09-29T01:56:47.207Z,101476.95
2018-09-29T01:59:15.279Z,101473.91
2018-09-29T02:01:43.361Z,101481.19
2018-09-29T02:04:11.441Z,101483.98
2018-09-29T02:06:39.511Z,101482.66
2018-09-29T02:09:08.118Z,101488.98
2018-09-29T02:11:36.255Z,101486.34
2018-09-29T02:14:04.569Z,101485.09
2018-09-29T02:16:32.692Z,101486.96
2018-09-29T02:19:00.769Z,101487.50
2018-09-29T02:21:28.849Z,101488.50
2018-09-29T02:23:57.012Z,101489.05
2018-09-29T02:26:25.099Z,101486.05
2018-09-29T02:28:53.243Z,101483.42
2018-09-29T02:31:21.257Z,101478.13
2018-09-29T02:33:49.357Z,101480.89
2018-09-29T02:36:17.478Z,101479.17
2018-09-29T02:38:45.547Z,101486.86
2018-09-29T02:41:13.613Z,101490.59
2018-09-29T02:43:41.857Z,101493.33
2018-09-29T02:46:09.921Z,101489.41
2018-09-29T02:48:38.004Z,101484.05
2018-09-29T02:51:06.148Z,101481.43
2018-09-29T02:53:34.228Z,101483.73
2018-09-29T02:56:02.498Z,101477.03
2018-09-29T02:58:30.574Z,101487.84
2018-09-29T03:00:58.642Z,101485.19
2018-09-29T03:03:26.762Z,101476.66
2018-09-29T03:05:54.842Z,101486.11
2018-09-29T03:08:22.921Z,101475.78
2018-09-29T03:10:50.989Z,101479.86
2018-09-29T03:13:19.073Z,101479.94
2018-09-29T03:15:47.141Z,101479.50
2018-09-29T03:18:15.219Z,101483.16
2018-09-29T03:20:43.285Z,101477.85
2018-09-29T03:23:11.466Z,101480.18
2018-09-29T03:25:39.515Z,101478.45
2018-09-29T03:28:07.624Z,101484.82
2018-09-29T03:30:35.689Z,101477.71
2018-09-29T03:33:03.777Z,101476.47
2018-09-29T03:35:31.845Z,101476.09
2018-09-29T03:37:59.921Z,101487.40
2018-09-29T03:40:27.998Z,101485.16
2018-09-29T03:42:56.061Z,101489.68
2018-09-29T03:45:24.141Z,101495.09
2018-09-29T03:47:52.243Z,101496.48
2018-09-29T03:50:20.381Z,101498.32
2018-09-29T03:52:48.446Z,101499.25
2018-09-29T03:55:16.524Z,101506.47
2018-09-29T03:57:44.593Z,101503.86
2018-09-29T04:00:12.670Z,101507.92
2018-09-29T04:02:40.881Z,101511.11
2018-09-29T04:05:08.923Z,101504.47
2018-09-29T04:07:36.992Z,101504.03
2018-09-29T04:10:05.073Z,101508.14
2018-09-29T04:12:33.271Z,101508.63
2018-09-29T04:15:01.417Z,101511.78
2018-09-29T04:17:29.485Z,101514.45
2018-09-29T04:19:57.662Z,101511.78
2018-09-29T04:22:25.729Z,101518.98
2018-09-29T04:24:53.806Z,101516.28
2018-09-29T04:27:21.882Z,101516.27
2018-09-29T04:29:49.957Z,101518.52
2018-09-29T04:32:18.936Z,101513.63
2018-09-29T04:34:47.016Z,101515.45
2018-09-29T04:37:15.089Z,101507.39
2018-09-29T04:39:43.170Z,101519.16
2018-09-29T04:42:11.241Z,101506.16
2018-09-29T04:44:39.422Z,101501.72
2018-09-29T04:47:07.500Z,101501.72
2018-09-29T04:49:35.572Z,101495.00
2018-09-29T04:52:03.643Z,101499.95
2018-09-29T04:54:31.714Z,101499.95
2018-09-29T04:56:59.890Z,101510.75
2018-09-29T04:59:27.950Z,101510.77
2018-09-29T05:01:56.030Z,101514.88
2018-09-29T05:04:24.275Z,101520.73
2018-09-29T05:06:52.353Z,101523.91
2018-09-29T05:09:20.430Z,101528.91
2018-09-29T05:11:48.501Z,101532.52
2018-09-29T05:14:16.567Z,101531.64
2018-09-29T05:16:44.647Z,101528.06
2018-09-29T05:19:12.828Z,101529.94
2018-09-29T05:21:40.909Z,101529.05
2018-09-29T05:24:09.068Z,101532.70
2018-09-29T05:26:37.370Z,101530.45
2018-09-29T05:29:05.433Z,101529.11
2018-09-29T05:31:33.508Z,101530.02
2018-09-29T05:34:01.567Z,101533.63
2018-09-29T05:36:29.644Z,101537.20
2018-09-29T05:38:57.708Z,101535.80
2018-09-29T05:41:25.772Z,101540.36
2018-09-29T05:43:53.856Z,101556.52
2018-09-29T05:46:21.923Z,101562.34
2018-09-29T05:48:50.005Z,101570.83
2018-09-29T05:51:18.072Z,101569.47
2018-09-29T05:53:46.213Z,101564.97
2018-09-29T05:56:14.219Z,101568.08
2018-09-29T05:58:42.306Z,101566.73
2018-09-29T06:01:10.369Z,101568.93
2018-09-29T06:03:38.542Z,101567.57
2018-09-29T06:06:06.643Z,101570.70
2018-09-29T06:08:34.734Z,101570.19
2018-09-29T06:11:02.779Z,101570.59
2018-09-29T06:13:30.905Z,101578.56
2018-09-29T06:15:58.926Z,101581.99
2018-09-29T06:18:27.006Z,101585.48
2018-09-29T06:20:55.098Z,101584.86
2018-09-29T06:23:23.140Z,101591.01
2018-09-29T06:25:51.290Z,101589.05
2018-09-29T06:28:19.385Z,101584.88
2018-09-29T06:30:47.948Z,101592.40
2018-09-29T06:33:16.026Z,101585.98
2018-09-29T06:35:44.099Z,101587.19
2018-09-29T06:38:12.169Z,101583.50
2018-09-29T06:40:40.460Z,101591.56
2018-09-29T06:43:08.475Z,101591.95
2018-09-29T06:45:36.597Z,101586.53
2018-09-29T06:48:04.803Z,101591.45
2018-09-29T06:50:32.849Z,101591.02
2018-09-29T06:53:01.010Z,101591.02
2018-09-29T06:55:29.092Z,101591.45
2018-09-29T06:57:57.258Z,101584.23
2018-09-29T07:00:25.444Z,101590.91
2018-09-29T07:02:53.640Z,101583.20
2018-09-29T07:05:21.697Z,101576.81
2018-09-29T07:07:49.753Z,101569.10
2018-09-29T07:10:17.942Z,101572.16
2018-09-29T07:12:46.140Z,101564.91
2018-09-29T07:15:14.290Z,101561.67
2018-09-29T07:17:42.457Z,101557.12
2018-09-29T07:20:10.637Z,101565.64
2018-09-29T07:22:38.959Z,101571.88
2018-09-29T07:25:07.103Z,101571.81
2018-09-29T07:27:35.171Z,101576.28
2018-09-29T07:30:03.341Z,101581.17
2018-09-29T07:32:31.413Z,101581.53
2018-09-29T07:34:59.587Z,101585.91
2018-09-29T07:37:27.705Z,101581.70
2018-09-29T07:39:55.782Z,101581.09
2018-09-29T07:42:23.818Z,101580.95
2018-09-29T07:44:51.886Z,101586.17
2018-09-29T07:47:19.969Z,101586.91
2018-09-29T07:49:48.111Z,101579.55
2018-09-29T07:52:16.223Z,101580.72
2018-09-29T07:54:44.371Z,101577.88
2018-09-29T07:57:12.702Z,101573.61
2018-09-29T07:59:40.773Z,101570.27
2018-09-29T08:02:08.854Z,101567.84
2018-09-29T08:04:36.962Z,101565.02
2018-09-29T08:07:05.138Z,101565.21
2018-09-29T08:09:33.550Z,101566.28
2018-09-29T08:12:01.599Z,101560.34
2018-09-29T08:14:29.677Z,101560.95
2018-09-29T08:16:57.849Z,101565.34
2018-09-29T08:19:25.954Z,101562.37
2018-09-29T08:21:54.034Z,101558.97
2018-09-29T08:24:22.200Z,101560.02
2018-09-29T08:26:50.371Z,101561.80
2018-09-29T08:29:18.610Z,101559.57
2018-09-29T08:31:46.599Z,101560.47
2018-09-29T08:34:19.962Z,101559.36
2018-09-29T08:36:48.042Z,101556.08
2018-09-29T08:39:16.114Z,101552.69
2018-09-29T08:41:44.190Z,101546.11
2018-09-29T08:44:12.282Z,101548.49
2018-09-29T08:46:40.654Z,101544.08
2018-09-29T08:49:09.160Z,101539.67
2018-09-29T08:51:37.270Z,101536.21
2018-09-29T08:54:05.368Z,101530.12
2018-09-29T08:56:33.463Z,101528.05
2018-09-29T08:59:01.541Z,101523.53
2018-09-29T09:01:29.617Z,101525.28
2018-09-29T09:03:57.739Z,101523.97
2018-09-29T09:06:25.787Z,101530.33
2018-09-29T09:08:53.871Z,101520.16
2018-09-29T09:11:21.937Z,101516.24
2018-09-29T09:13:50.020Z,101504.13
2018-09-29T09:16:18.102Z,101512.07
2018-09-29T09:18:46.214Z,101511.72
2018-09-29T09:21:14.289Z,101505.63
2018-09-29T09:23:42.399Z,101498.37
2018-09-29T09:26:10.437Z,101498.19
2018-09-29T09:28:38.594Z,101503.39
2018-09-29T09:31:06.657Z,101500.82
2018-09-29T09:33:34.741Z,101498.70
2018-09-29T09:36:02.812Z,101498.42
2018-09-29T09:38:30.892Z,101487.96
2018-09-29T09:40:58.969Z,101489.16
2018-09-29T09:43:27.153Z,101487.46
2018-09-29T09:45:55.223Z,101486.27
2018-09-29T09:48:23.306Z,101468.86
2018-09-29T09:50:51.391Z,101470.01
2018-09-29T09:53:19.457Z,101470.23
2018-09-29T09:55:47.670Z,101463.01
2018-09-29T09:58:15.769Z,101471.61
2018-09-29T10:00:49.332Z,101469.64
2018-09-29T10:03:22.798Z,101460.39
2018-09-29T10:05:50.891Z,101452.33
2018-09-29T10:08:18.965Z,101443.93
2018-09-29T10:10:47.387Z,101451.99
2018-09-29T10:13:15.462Z,101437.93
2018-09-29T10:15:43.647Z,101434.31
2018-09-29T10:18:11.713Z,101436.77
2018-09-29T10:20:39.793Z,101431.82
2018-09-29T10:23:07.873Z,101429.71
2018-09-29T10:25:36.095Z,101431.62
2018-09-29T10:28:04.174Z,101424.47
2018-09-29T10:30:32.278Z,101421.69
2018-09-29T10:33:00.355Z,101424.67
2018-09-29T10:35:28.429Z,101417.92
2018-09-29T10:37:56.679Z,101415.48
2018-09-29T10:40:24.831Z,101414.30
2018-09-29T10:42:52.907Z,101414.91
2018-09-29T10:45:21.022Z,101409.06
2018-09-29T10:47:49.091Z,101411.30
2018-09-29T10:50:17.295Z,101390.14
2018-09-29T10:52:45.418Z,101410.05
2018-09-29T10:55:13.512Z,101405.80
2018-09-29T10:57:41.695Z,101392.47
2018-09-29T11:00:09.775Z,101392.28
2018-09-29T11:02:38.002Z,101390.14
2018-09-29T11:05:06.184Z,101388.41
2018-09-29T11:07:34.342Z,101391.72
2018-09-29T11:10:02.416Z,101382.40
2018-09-29T11:12:30.489Z,101375.67
2018-09-29T11:14:58.654Z,101373.34
2018-09-29T11:17:26.847Z,101367.72
2018-09-29T11:19:54.955Z,101365.40
2018-09-29T11:22:23.184Z,101360.51
2018-09-29T11:24:51.255Z,101363.81
2018-09-29T11:27:19.334Z,101361.69
2018-09-29T11:29:47.405Z,101354.61
2018-09-29T11:32:15.580Z,101350.28
2018-09-29T11:34:43.650Z,101339.12
2018-09-29T11:37:11.824Z,101338.72
2018-09-29T11:39:39.983Z,101331.59
2018-09-29T11:42:08.148Z,101336.44
2018-09-29T11:44:36.282Z,101325.73
2018-09-29T11:47:04.308Z,101317.45
2018-09-29T11:49:32.386Z,101316.09
2018-09-29T11:52:00.465Z,101305.64
2018-09-29T11:54:28.546Z,101305.00
2018-09-29T11:56:56.618Z,101293.17
2018-09-29T11:59:24.700Z,101288.89
2018-09-29T12:01:52.847Z,101291.53
2018-09-29T12:04:20.863Z,101282.91
2018-09-29T12:06:48.933Z,101286.12
2018-09-29T12:09:17.018Z,101281.33
2018-09-29T12:11:45.094Z,101273.18
2018-09-29T12:14:13.181Z,101260.71
2018-09-29T12:16:41.250Z,101235.62
2018-09-29T12:19:09.329Z,101266.45
2018-09-29T12:21:37.406Z,101262.08
2018-09-29T12:24:05.507Z,101251.83
2018-09-29T12:26:33.689Z,101247.93
2018-09-29T12:29:01.862Z,101251.70
2018-09-29T12:31:29.833Z,101240.31
2018-09-29T12:33:57.912Z,101237.13
2018-09-29T12:36:25.982Z,101234.52
2018-09-29T12:38:54.097Z,101236.20
2018-09-29T12:41:22.167Z,101237.97
2018-09-29T12:43:50.252Z,101222.09
2018-09-29T12:46:18.325Z,101228.91
2018-09-29T12:48:46.395Z,101219.05
2018-09-29T12:51:14.561Z,101217.19
2018-09-29T12:53:42.629Z,101204.89
2018-09-29T12:56:10.709Z,101200.51
2018-09-29T12:58:38.775Z,101207.66
2018-09-29T13:01:06.856Z,101194.28
2018-09-29T13:03:34.930Z,101182.97
2018-09-29T13:06:03.011Z,101182.93
2018-09-29T13:08:31.088Z,101176.50
2018-09-29T13:10:59.306Z,101172.08
2018-09-29T13:13:27.327Z,101170.85
2018-09-29T13:15:55.404Z,101167.91
2018-09-29T13:18:23.553Z,101164.58
2018-09-29T13:20:51.787Z,101169.00
2018-09-29T13:23:19.867Z,101154.81
2018-09-29T13:25:47.946Z,101150.09
2018-09-29T13:28:16.058Z,101152.66
2018-09-29T13:30:44.145Z,101147.18
2018-09-29T13:33:12.221Z,101146.93
2018-09-29T13:35:40.447Z,101149.84
2018-09-29T13:38:08.527Z,101137.81
2018-09-29T13:40:36.610Z,101135.84
2018-09-29T13:43:04.686Z,101132.70
2018-09-29T13:45:32.768Z,101138.58
2018-09-29T13:48:00.841Z,101127.05
2018-09-29T13:50:28.926Z,101130.98
2018-09-29T13:52:57.082Z,101119.72
2018-09-29T13:55:25.151Z,101114.81
2018-09-29T13:57:53.237Z,101116.48
2018-09-29T14:00:21.310Z,101111.59
2018-09-29T14:02:49.393Z,101108.84
2018-09-29T14:05:17.548Z,101099.66
2018-09-29T14:07:45.638Z,101094.17
2018-09-29T14:10:13.713Z,101095.18
2018-09-29T14:12:41.799Z,101096.16
2018-09-29T14:15:09.873Z,101088.02
2018-09-29T14:17:37.993Z,101088.20
2018-09-29T14:20:06.959Z,101086.47
2018-09-29T14:22:35.040Z,101077.45
2018-09-29T14:25:03.105Z,101075.50
2018-09-29T14:27:31.190Z,101073.06
2018-09-29T14:29:59.319Z,101070.33
2018-09-29T14:32:27.377Z,101067.09
2018-09-29T14:34:55.452Z,101059.58
2018-09-29T14:37:23.556Z,101062.12
2018-09-29T14:39:51.620Z,101055.05
2018-09-29T14:42:19.703Z,101052.80
2018-09-29T14:44:47.770Z,101053.78
2018-09-29T14:47:15.853Z,101041.66
2018-09-29T14:49:43.941Z,101047.23
2018-09-29T14:52:12.042Z,101043.30
2018-09-29T14:54:40.089Z,101039.78
2018-09-29T14:57:08.157Z,101035.67
2018-09-29T14:59:36.344Z,101026.45
2018-09-29T15:02:04.376Z,101027.06
2018-09-29T15:04:32.484Z,101031.75
2018-09-29T15:07:00.576Z,101031.06
2018-09-29T15:09:28.661Z,101029.41
2018-09-29T15:11:56.738Z,101022.47
2018-09-29T15:14:24.825Z,101025.39
2018-09-29T15:16:52.897Z,101018.45
2018-09-29T15:19:20.978Z,101021.78
2018-09-29T15:21:49.055Z,101008.26
2018-09-29T15:24:17.140Z,101015.72
2018-09-29T15:26:45.211Z,101015.30
2018-09-29T15:29:13.288Z,101016.86
2018-09-29T15:31:41.414Z,101009.25
2018-09-29T15:34:09.496Z,101012.44
2018-09-29T15:36:37.563Z,101013.72
2018-09-29T15:39:08.193Z,101009.12
2018-09-29T15:41:36.417Z,101002.98
2018-09-29T15:44:04.713Z,100992.12
2018-09-29T15:46:32.807Z,100995.53
2018-09-29T15:49:00.898Z,100999.16
2018-09-29T15:51:29.026Z,100997.48
2018-09-29T15:53:57.106Z,101001.81
2018-09-29T15:56:25.209Z,100992.79
2018-09-29T15:58:53.310Z,100995.53
2018-09-29T16:01:21.389Z,100989.48
2018-09-29T16:03:49.486Z,100996.70
2018-09-29T16:06:17.625Z,100997.31
2018-09-29T16:08:45.777Z,100990.91
2018-09-29T16:11:13.869Z,100992.67
2018-09-29T16:13:42.020Z,100978.98
2018-09-29T16:16:10.103Z,100978.80
2018-09-29T16:18:38.264Z,100980.84
2018-09-29T16:21:06.389Z,100980.52
2018-09-29T16:23:34.676Z,100988.38
2018-09-29T16:26:03.068Z,100979.66
2018-09-29T16:28:31.143Z,100981.40
2018-09-29T16:30:59.319Z,100975.77
2018-09-29T16:33:27.426Z,100972.73
2018-09-29T16:35:55.515Z,100975.92
2018-09-29T16:38:23.733Z,100976.80
2018-09-29T16:40:51.743Z,100974.80
2018-09-29T16:43:19.976Z,100979.15
2018-09-29T16:45:48.029Z,100982.33
2018-09-29T16:48:16.166Z,100987.95
2018-09-29T16:50:44.418Z,100984.06
2018-09-29T16:53:12.458Z,100989.64
2018-09-29T16:55:40.616Z,100989.52
2018-09-29T16:58:08.691Z,100986.17
2018-09-29T17:00:36.850Z,100984.11
2018-09-29T17:03:04.920Z,100993.21
2018-09-29T17:05:33.030Z,100988.73
2018-09-29T17:08:01.157Z,100990.14
2018-09-29T17:10:29.343Z,100995.52
2018-09-29T17:12:57.433Z,100992.91
2018-09-29T17:15:25.507Z,100996.05
2018-09-29T17:17:53.586Z,100995.09
2018-09-29T17:20:21.725Z,100996.34
2018-09-29T17:22:49.924Z,100996.42
2018-09-29T17:25:18.022Z,101000.51
2018-09-29T17:27:46.125Z,100997.37
2018-09-29T17:30:14.204Z,101009.55
2018-09-29T17:32:42.292Z,101007.70
2018-09-29T17:35:10.370Z,101006.25
2018-09-29T17:37:38.466Z,101009.36
2018-09-29T17:40:06.537Z,101004.30
2018-09-29T17:42:35.050Z,101008.66
2018-09-29T17:45:03.221Z,101002.64
2018-09-29T17:47:31.215Z,101002.06
2018-09-29T17:49:59.290Z,100998.77
2018-09-29T17:52:27.462Z,101004.83
2018-09-29T17:54:55.540Z,100994.30
2018-09-29T17:57:23.621Z,100992.84
2018-09-29T17:59:51.692Z,100999.06
2018-09-29T18:02:19.786Z,100996.03
2018-09-29T18:04:47.873Z,100993.20
2018-09-29T18:07:15.946Z,100995.27
2018-09-29T18:09:44.028Z,100996.52
2018-09-29T18:12:13.028Z,100996.78
2018-09-29T18:14:41.114Z,100999.38
2018-09-29T18:17:09.192Z,101005.11
2018-09-29T18:19:37.284Z,101005.81
2018-09-29T18:22:05.364Z,101008.79
2018-09-29T18:24:33.450Z,101000.44
2018-09-29T18:27:01.541Z,101001.61
2018-09-29T18:29:29.854Z,100995.09
2018-09-29T18:31:57.975Z,100999.84
2018-09-29T18:34:26.154Z,100999.70
2018-09-29T18:36:54.229Z,101001.47
2018-09-29T18:39:22.314Z,100997.26
2018-09-29T18:41:50.386Z,100999.84
2018-09-29T18:44:18.560Z,101000.17
2018-09-29T18:46:46.642Z,100999.67
2018-09-29T18:49:14.808Z,101001.69
2018-09-29T18:51:42.943Z,101010.37
2018-09-29T18:54:11.001Z,101007.77
2018-09-29T18:56:39.070Z,101010.16
2018-09-29T18:59:07.226Z,101014.30
2018-09-29T19:01:35.301Z,101019.43
2018-09-29T19:04:03.386Z,101013.73
2018-09-29T19:06:31.471Z,101018.86
2018-09-29T19:08:59.631Z,101011.45
2018-09-29T19:11:27.630Z,101018.97
2018-09-29T19:13:55.711Z,101016.04
2018-09-29T19:16:23.785Z,101016.27
2018-09-29T19:18:51.865Z,101011.55
2018-09-29T19:21:19.949Z,101010.81
2018-09-29T19:23:48.022Z,101010.56
2018-09-29T19:26:16.107Z,101012.86
2018-09-29T19:28:44.181Z,101013.94
2018-09-29T19:31:12.262Z,101014.05
2018-09-29T19:33:40.459Z,101021.92
2018-09-29T19:36:08.490Z,101022.55
2018-09-29T19:38:36.844Z,101009.23
2018-09-29T19:41:05.052Z,101018.87
2018-09-29T19:43:33.258Z,101014.91
2018-09-29T19:46:01.331Z,101009.11
2018-09-29T19:48:29.411Z,101012.02
2018-09-29T19:50:57.503Z,101004.92
2018-09-29T19:53:25.578Z,101008.30
2018-09-29T19:55:53.665Z,101013.30
2018-09-29T19:58:21.792Z,101013.41
2018-09-29T20:00:49.814Z,101009.52
2018-09-29T20:03:17.886Z,101007.47
2018-09-29T20:05:45.978Z,101016.22
2018-09-29T20:08:14.047Z,101007.38
2018-09-29T20:10:42.130Z,101006.59
2018-09-29T20:13:10.197Z,101008.57
2018-09-29T20:15:38.268Z,101010.91
2018-09-29T20:18:06.686Z,101006.09
2018-09-29T20:20:34.806Z,101012.08
2018-09-29T20:23:02.903Z,101011.71
2018-09-29T20:25:30.990Z,101011.42
2018-09-29T20:27:59.078Z,101008.00
2018-09-29T20:30:27.153Z,100996.84
2018-09-29T20:32:55.235Z,101006.84
2018-09-29T20:35:23.362Z,101015.10
2018-09-29T20:37:51.451Z,101017.48
2018-09-29T20:40:19.529Z,101013.55
2018-09-29T20:42:47.616Z,101016.36
2018-09-29T20:45:15.688Z,101022.88
2018-09-29T20:47:43.780Z,101022.93
2018-09-29T20:50:12.230Z,101016.20
2018-09-29T20:52:40.319Z,101017.60
2018-09-29T20:55:08.427Z,101018.58
2018-09-29T20:57:36.525Z,101016.05
2018-09-29T21:00:04.595Z,101021.64
2018-09-29T21:02:32.721Z,101018.59
2018-09-29T21:05:00.867Z,101011.20
2018-09-29T21:07:28.951Z,101004.17
2018-09-29T21:09:57.018Z,101003.84
2018-09-29T21:12:25.098Z,101010.27
2018-09-29T21:14:53.172Z,101003.55
2018-09-29T21:17:21.310Z,101001.43
2018-09-29T21:19:49.380Z,101000.63
2018-09-29T21:22:17.458Z,100993.94
2018-09-29T21:24:45.534Z,100992.75
2018-09-29T21:27:13.685Z,101000.58
2018-09-29T21:29:41.782Z,101001.12
2018-09-29T21:32:09.850Z,100993.98
2018-09-29T21:34:37.929Z,100983.66
2018-09-29T21:37:06.181Z,100986.83
2018-09-29T21:39:34.374Z,100990.42
2018-09-29T21:42:02.447Z,100985.59
2018-09-29T21:44:30.525Z,100988.77
2018-09-29T21:46:58.599Z,100989.28
2018-09-29T21:49:26.692Z,100988.81
2018-09-29T21:51:54.765Z,100988.39
2018-09-29T21:54:22.937Z,100991.98
2018-09-29T21:56:51.035Z,100992.07
2018-09-29T21:59:19.172Z,100991.30
2018-09-29T22:01:47.443Z,100989.14
2018-09-29T22:04:15.551Z,100987.95
2018-09-29T22:06:43.625Z,100988.50
2018-09-29T22:09:20.900Z,100984.05
2018-09-29T22:11:49.120Z,100985.95
2018-09-29T22:14:17.198Z,100982.91
2018-09-29T22:16:45.278Z,100983.02
2018-09-29T22:19:13.493Z,100976.80
2018-09-29T22:21:41.610Z,100980.02
2018-09-29T22:24:09.855Z,100980.98
2018-09-29T22:26:37.930Z,100977.85
2018-09-29T22:29:06.398Z,100980.59
2018-09-29T22:31:34.500Z,100984.70
2018-09-29T22:34:02.579Z,100975.73
2018-09-29T22:36:30.657Z,100967.31
2018-09-29T22:38:58.730Z,100970.94
2018-09-29T22:41:26.809Z,100964.27
2018-09-29T22:43:54.875Z,100969.36
2018-09-29T22:46:22.960Z,100968.13
2018-09-29T22:48:51.477Z,100964.22
2018-09-29T22:51:19.622Z,100967.42
2018-09-29T22:53:47.704Z,100960.36
2018-09-29T22:56:15.781Z,100961.25
2018-09-29T22:58:43.847Z,100963.09
2018-09-29T23:01:11.915Z,100956.45
2018-09-29T23:03:40.173Z,100955.25
2018-09-29T23:06:08.264Z,100959.45
2018-09-29T23:08:36.367Z,100947.91
2018-09-29T23:11:04.443Z,100946.28
2018-09-29T23:13:32.513Z,100948.17
2018-09-29T23:16:00.591Z,100949.20
2018-09-29T23:18:28.661Z,100953.29
2018-09-29T23:20:56.907Z,100952.05
2018-09-29T23:23:24.986Z,100944.05
2018-09-29T23:25:53.090Z,100938.79
2018-09-29T23:28:21.151Z,100946.05
2018-09-29T23:30:49.220Z,100939.47
2018-09-29T23:33:17.360Z,100938.69
2018-09-29T23:35:45.447Z,100930.27
2018-09-29T23:38:13.519Z,100928.98
2018-09-29T23:40:41.590Z,100928.13
2018-09-29T23:43:09.689Z,100927.63
2018-09-29T23:45:37.828Z,100922.70
2018-09-29T23:48:05.919Z,100922.23
2018-09-29T23:50:34.008Z,100916.87
2018-09-29T23:53:02.084Z,100908.88
2018-09-29T23:55:30.152Z,100912.50
2018-09-29T23:57:58.225Z,100914.77
